sensor_id;sensor_type;location;lat;lon;timestamp;temperature;humidity
67196;DHT22;54122;53.538;49.366;2022-10-16T00:00:24;2.10;90.70
67196;DHT22;54122;53.538;49.366;2022-10-16T00:02:55;2.10;90.90
67196;DHT22;54122;53.538;49.366;2022-10-16T00:05:27;2.00;90.90
67196;DHT22;54122;53.538;49.366;2022-10-16T00:07:58;2.00;90.90
67196;DHT22;54122;53.538;49.366;2022-10-16T00:10:29;2.00;91.00
67196;DHT22;54122;53.538;49.366;2022-10-16T00:13:01;2.00;91.20
67196;DHT22;54122;53.538;49.366;2022-10-16T00:15:33;1.90;91.10
67196;DHT22;54122;53.538;49.366;2022-10-16T00:18:07;1.90;91.20
67196;DHT22;54122;53.538;49.366;2022-10-16T00:20:38;1.90;91.20
67196;DHT22;54122;53.538;49.366;2022-10-16T00:23:09;1.80;91.40
67196;DHT22;54122;53.538;49.366;2022-10-16T00:25:41;1.90;91.50
67196;DHT22;54122;53.538;49.366;2022-10-16T00:28:12;1.80;91.40
67196;DHT22;54122;53.538;49.366;2022-10-16T00:30:44;1.80;91.50
67196;DHT22;54122;53.538;49.366;2022-10-16T00:33:15;1.80;91.60
67196;DHT22;54122;53.538;49.366;2022-10-16T00:35:47;1.70;91.50
67196;DHT22;54122;53.538;49.366;2022-10-16T00:38:18;1.70;91.70
67196;DHT22;54122;53.538;49.366;2022-10-16T00:40:50;1.70;91.80
67196;DHT22;54122;53.538;49.366;2022-10-16T00:46:25;1.60;91.80
67196;DHT22;54122;53.538;49.366;2022-10-16T00:49:02;1.60;91.90
67196;DHT22;54122;53.538;49.366;2022-10-16T00:51:44;1.50;92.00
67196;DHT22;54122;53.538;49.366;2022-10-16T00:54:18;1.50;92.10
67196;DHT22;54122;53.538;49.366;2022-10-16T00:56:51;1.50;92.00
67196;DHT22;54122;53.538;49.366;2022-10-16T00:59:25;1.50;92.10
67196;DHT22;54122;53.538;49.366;2022-10-16T01:01:57;1.40;92.20
67196;DHT22;54122;53.538;49.366;2022-10-16T01:04:32;1.40;92.30
67196;DHT22;54122;53.538;49.366;2022-10-16T01:07:27;1.40;92.40
67196;DHT22;54122;53.538;49.366;2022-10-16T01:12:54;1.30;92.40
67196;DHT22;54122;53.538;49.366;2022-10-16T01:15:37;1.30;92.50
67196;DHT22;54122;53.538;49.366;2022-10-16T01:21:22;1.30;92.50
67196;DHT22;54122;53.538;49.366;2022-10-16T01:24:03;1.40;92.60
67196;DHT22;54122;53.538;49.366;2022-10-16T01:29:29;1.40;92.70
67196;DHT22;54122;53.538;49.366;2022-10-16T01:32:09;1.30;92.70
67196;DHT22;54122;53.538;49.366;2022-10-16T01:34:51;1.40;93.20
67196;DHT22;54122;53.538;49.366;2022-10-16T01:37:35;1.40;92.70
67196;DHT22;54122;53.538;49.366;2022-10-16T01:40:09;1.40;92.80
67196;DHT22;54122;53.538;49.366;2022-10-16T01:42:42;1.30;92.70
67196;DHT22;54122;53.538;49.366;2022-10-16T01:45:16;1.30;92.80
67196;DHT22;54122;53.538;49.366;2022-10-16T01:47:49;1.30;92.90
67196;DHT22;54122;53.538;49.366;2022-10-16T01:50:22;1.30;93.00
67196;DHT22;54122;53.538;49.366;2022-10-16T01:52:55;1.30;93.00
67196;DHT22;54122;53.538;49.366;2022-10-16T01:55:29;1.20;93.10
67196;DHT22;54122;53.538;49.366;2022-10-16T01:58:02;1.20;93.10
67196;DHT22;54122;53.538;49.366;2022-10-16T02:00:36;1.20;93.20
67196;DHT22;54122;53.538;49.366;2022-10-16T02:03:08;1.10;93.20
67196;DHT22;54122;53.538;49.366;2022-10-16T02:08:16;1.10;93.30
67196;DHT22;54122;53.538;49.366;2022-10-16T02:10:47;1.10;93.40
67196;DHT22;54122;53.538;49.366;2022-10-16T02:13:21;1.10;93.40
67196;DHT22;54122;53.538;49.366;2022-10-16T02:15:53;1.00;93.40
67196;DHT22;54122;53.538;49.366;2022-10-16T02:18:25;1.00;93.50
67196;DHT22;54122;53.538;49.366;2022-10-16T02:23:44;1.00;93.60
67196;DHT22;54122;53.538;49.366;2022-10-16T02:26:19;1.00;93.60
67196;DHT22;54122;53.538;49.366;2022-10-16T02:28:53;0.90;93.70
67196;DHT22;54122;53.538;49.366;2022-10-16T02:31:27;1.00;93.80
67196;DHT22;54122;53.538;49.366;2022-10-16T02:33:59;0.90;93.90
67196;DHT22;54122;53.538;49.366;2022-10-16T02:36:31;0.90;93.90
67196;DHT22;54122;53.538;49.366;2022-10-16T02:39:03;0.90;93.90
67196;DHT22;54122;53.538;49.366;2022-10-16T02:41:35;0.90;93.80
67196;DHT22;54122;53.538;49.366;2022-10-16T02:44:07;0.90;93.80
67196;DHT22;54122;53.538;49.366;2022-10-16T02:46:38;0.80;93.80
67196;DHT22;54122;53.538;49.366;2022-10-16T02:49:10;0.80;93.90
67196;DHT22;54122;53.538;49.366;2022-10-16T02:51:41;0.80;94.00
67196;DHT22;54122;53.538;49.366;2022-10-16T02:54:12;0.80;94.20
67196;DHT22;54122;53.538;49.366;2022-10-16T02:56:44;0.80;94.10
67196;DHT22;54122;53.538;49.366;2022-10-16T02:59:15;0.70;94.10
67196;DHT22;54122;53.538;49.366;2022-10-16T03:01:46;0.70;94.20
67196;DHT22;54122;53.538;49.366;2022-10-16T03:04:18;0.70;94.20
67196;DHT22;54122;53.538;49.366;2022-10-16T03:06:49;0.70;94.40
67196;DHT22;54122;53.538;49.366;2022-10-16T03:09:20;0.70;94.60
67196;DHT22;54122;53.538;49.366;2022-10-16T03:11:54;0.80;94.70
67196;DHT22;54122;53.538;49.366;2022-10-16T03:14:25;0.80;94.60
67196;DHT22;54122;53.538;49.366;2022-10-16T03:16:57;0.90;94.60
67196;DHT22;54122;53.538;49.366;2022-10-16T03:19:28;0.80;94.50
67196;DHT22;54122;53.538;49.366;2022-10-16T03:21:59;0.90;94.50
67196;DHT22;54122;53.538;49.366;2022-10-16T03:24:31;0.80;94.40
67196;DHT22;54122;53.538;49.366;2022-10-16T03:27:02;0.90;94.40
67196;DHT22;54122;53.538;49.366;2022-10-16T03:29:33;0.90;94.40
67196;DHT22;54122;53.538;49.366;2022-10-16T03:32:05;0.90;94.40
67196;DHT22;54122;53.538;49.366;2022-10-16T03:34:36;0.90;94.40
67196;DHT22;54122;53.538;49.366;2022-10-16T03:37:07;0.90;94.40
67196;DHT22;54122;53.538;49.366;2022-10-16T03:39:39;0.90;94.40
67196;DHT22;54122;53.538;49.366;2022-10-16T03:42:10;0.90;94.50
67196;DHT22;54122;53.538;49.366;2022-10-16T03:44:42;0.90;94.50
67196;DHT22;54122;53.538;49.366;2022-10-16T03:47:13;1.00;94.60
67196;DHT22;54122;53.538;49.366;2022-10-16T03:49:44;1.00;94.50
67196;DHT22;54122;53.538;49.366;2022-10-16T03:52:16;1.00;94.50
67196;DHT22;54122;53.538;49.366;2022-10-16T03:54:47;1.00;94.50
67196;DHT22;54122;53.538;49.366;2022-10-16T03:57:18;1.10;94.50
67196;DHT22;54122;53.538;49.366;2022-10-16T03:59:51;1.10;94.40
67196;DHT22;54122;53.538;49.366;2022-10-16T04:02:23;1.20;94.40
67196;DHT22;54122;53.538;49.366;2022-10-16T04:04:54;1.30;94.30
67196;DHT22;54122;53.538;49.366;2022-10-16T04:07:25;1.40;94.10
67196;DHT22;54122;53.538;49.366;2022-10-16T04:09:57;1.50;94.10
67196;DHT22;54122;53.538;49.366;2022-10-16T04:12:29;1.50;93.90
67196;DHT22;54122;53.538;49.366;2022-10-16T04:15:01;1.50;93.90
67196;DHT22;54122;53.538;49.366;2022-10-16T04:17:32;1.60;93.90
67196;DHT22;54122;53.538;49.366;2022-10-16T04:20:04;1.60;94.00
67196;DHT22;54122;53.538;49.366;2022-10-16T04:22:35;1.70;94.00
67196;DHT22;54122;53.538;49.366;2022-10-16T04:25:07;1.80;93.80
67196;DHT22;54122;53.538;49.366;2022-10-16T04:27:38;1.80;93.90
67196;DHT22;54122;53.538;49.366;2022-10-16T04:30:10;1.90;93.90
67196;DHT22;54122;53.538;49.366;2022-10-16T04:32:41;1.90;94.00
67196;DHT22;54122;53.538;49.366;2022-10-16T04:35:12;2.20;95.30
67196;DHT22;54122;53.538;49.366;2022-10-16T04:37:44;3.20;96.00
67196;DHT22;54122;53.538;49.366;2022-10-16T04:40:15;4.60;93.90
67196;DHT22;54122;53.538;49.366;2022-10-16T04:42:47;6.10;91.30
67196;DHT22;54122;53.538;49.366;2022-10-16T04:45:18;7.30;88.70
67196;DHT22;54122;53.538;49.366;2022-10-16T04:47:50;8.50;85.20
67196;DHT22;54122;53.538;49.366;2022-10-16T04:50:21;9.50;81.80
67196;DHT22;54122;53.538;49.366;2022-10-16T04:52:52;10.00;78.50
67196;DHT22;54122;53.538;49.366;2022-10-16T04:55:23;10.10;77.30
67196;DHT22;54122;53.538;49.366;2022-10-16T04:57:55;10.10;77.30
67196;DHT22;54122;53.538;49.366;2022-10-16T05:00:26;10.30;77.40
67196;DHT22;54122;53.538;49.366;2022-10-16T05:02:58;10.60;76.50
67196;DHT22;54122;53.538;49.366;2022-10-16T05:05:30;11.00;76.50
67196;DHT22;54122;53.538;49.366;2022-10-16T05:08:02;11.50;75.30
67196;DHT22;54122;53.538;49.366;2022-10-16T05:10:33;12.10;74.10
67196;DHT22;54122;53.538;49.366;2022-10-16T05:13:06;12.70;72.70
67196;DHT22;54122;53.538;49.366;2022-10-16T05:15:37;13.20;71.30
67196;DHT22;54122;53.538;49.366;2022-10-16T05:18:10;13.70;70.20
67196;DHT22;54122;53.538;49.366;2022-10-16T05:20:45;14.10;68.90
67196;DHT22;54122;53.538;49.366;2022-10-16T05:23:16;14.70;67.80
67196;DHT22;54122;53.538;49.366;2022-10-16T05:25:51;15.20;65.70
67196;DHT22;54122;53.538;49.366;2022-10-16T05:28:29;15.40;64.90
67196;DHT22;54122;53.538;49.366;2022-10-16T05:31:05;15.50;63.60
67196;DHT22;54122;53.538;49.366;2022-10-16T05:33:37;15.40;62.20
67196;DHT22;54122;53.538;49.366;2022-10-16T05:36:09;15.60;62.20
67196;DHT22;54122;53.538;49.366;2022-10-16T05:38:40;15.90;60.20
67196;DHT22;54122;53.538;49.366;2022-10-16T05:41:12;16.10;58.50
67196;DHT22;54122;53.538;49.366;2022-10-16T05:43:43;16.40;56.70
67196;DHT22;54122;53.538;49.366;2022-10-16T05:46:14;16.70;55.50
67196;DHT22;54122;53.538;49.366;2022-10-16T05:48:46;17.10;54.80
67196;DHT22;54122;53.538;49.366;2022-10-16T05:51:17;17.50;53.70
67196;DHT22;54122;53.538;49.366;2022-10-16T05:53:49;17.80;52.10
67196;DHT22;54122;53.538;49.366;2022-10-16T05:56:20;17.80;51.30
67196;DHT22;54122;53.538;49.366;2022-10-16T05:58:51;17.40;52.70
67196;DHT22;54122;53.538;49.366;2022-10-16T06:01:24;17.00;51.80
67196;DHT22;54122;53.538;49.366;2022-10-16T06:03:56;16.70;51.20
67196;DHT22;54122;53.538;49.366;2022-10-16T06:06:28;16.50;52.00
67196;DHT22;54122;53.538;49.366;2022-10-16T06:09:00;16.20;52.10
67196;DHT22;54122;53.538;49.366;2022-10-16T06:11:32;16.10;52.00
67196;DHT22;54122;53.538;49.366;2022-10-16T06:14:03;16.20;51.90
67196;DHT22;54122;53.538;49.366;2022-10-16T06:16:38;16.30;51.60
67196;DHT22;54122;53.538;49.366;2022-10-16T06:19:10;16.80;51.90
67196;DHT22;54122;53.538;49.366;2022-10-16T06:21:41;17.20;49.70
67196;DHT22;54122;53.538;49.366;2022-10-16T06:24:16;17.60;48.80
67196;DHT22;54122;53.538;49.366;2022-10-16T06:26:47;18.00;47.60
67196;DHT22;54122;53.538;49.366;2022-10-16T06:29:19;18.20;46.10
67196;DHT22;54122;53.538;49.366;2022-10-16T06:31:50;18.30;44.80
67196;DHT22;54122;53.538;49.366;2022-10-16T06:34:21;18.40;44.50
67196;DHT22;54122;53.538;49.366;2022-10-16T06:36:53;18.60;43.60
67196;DHT22;54122;53.538;49.366;2022-10-16T06:39:24;18.50;42.60
67196;DHT22;54122;53.538;49.366;2022-10-16T06:41:55;18.50;43.20
67196;DHT22;54122;53.538;49.366;2022-10-16T06:44:27;18.60;43.20
67196;DHT22;54122;53.538;49.366;2022-10-16T06:46:59;18.90;43.00
67196;DHT22;54122;53.538;49.366;2022-10-16T06:49:32;19.00;42.50
67196;DHT22;54122;53.538;49.366;2022-10-16T06:52:03;19.00;41.60
67196;DHT22;54122;53.538;49.366;2022-10-16T06:54:34;19.00;42.00
67196;DHT22;54122;53.538;49.366;2022-10-16T06:57:06;19.10;41.70
67196;DHT22;54122;53.538;49.366;2022-10-16T06:59:37;19.10;40.70
67196;DHT22;54122;53.538;49.366;2022-10-16T07:02:09;19.10;40.40
67196;DHT22;54122;53.538;49.366;2022-10-16T07:04:40;19.10;39.80
67196;DHT22;54122;53.538;49.366;2022-10-16T07:07:12;19.10;39.20
67196;DHT22;54122;53.538;49.366;2022-10-16T07:09:43;19.10;39.50
67196;DHT22;54122;53.538;49.366;2022-10-16T07:12:14;19.20;38.60
67196;DHT22;54122;53.538;49.366;2022-10-16T07:14:46;19.10;37.40
67196;DHT22;54122;53.538;49.366;2022-10-16T07:17:17;18.80;38.90
67196;DHT22;54122;53.538;49.366;2022-10-16T07:19:49;18.70;38.20
67196;DHT22;54122;53.538;49.366;2022-10-16T07:22:20;18.80;38.20
67196;DHT22;54122;53.538;49.366;2022-10-16T07:24:51;18.90;37.20
67196;DHT22;54122;53.538;49.366;2022-10-16T07:27:23;19.00;37.10
67196;DHT22;54122;53.538;49.366;2022-10-16T07:29:55;19.00;37.30
67196;DHT22;54122;53.538;49.366;2022-10-16T07:32:26;19.00;37.50
67196;DHT22;54122;53.538;49.366;2022-10-16T07:34:57;19.10;36.80
67196;DHT22;54122;53.538;49.366;2022-10-16T07:37:29;19.00;36.00
67196;DHT22;54122;53.538;49.366;2022-10-16T07:40:00;19.00;36.10
67196;DHT22;54122;53.538;49.366;2022-10-16T07:42:32;18.90;35.40
67196;DHT22;54122;53.538;49.366;2022-10-16T07:45:03;18.70;35.10
67196;DHT22;54122;53.538;49.366;2022-10-16T07:47:35;18.60;35.20
67196;DHT22;54122;53.538;49.366;2022-10-16T07:50:06;18.40;36.30
67196;DHT22;54122;53.538;49.366;2022-10-16T07:52:38;18.60;36.40
67196;DHT22;54122;53.538;49.366;2022-10-16T07:55:09;18.60;35.70
67196;DHT22;54122;53.538;49.366;2022-10-16T07:57:40;18.50;35.50
67196;DHT22;54122;53.538;49.366;2022-10-16T08:00:12;18.20;35.30
67196;DHT22;54122;53.538;49.366;2022-10-16T08:02:44;17.80;35.90
67196;DHT22;54122;53.538;49.366;2022-10-16T08:05:16;17.90;36.40
67196;DHT22;54122;53.538;49.366;2022-10-16T08:07:50;18.00;36.10
67196;DHT22;54122;53.538;49.366;2022-10-16T08:10:22;18.30;36.00
67196;DHT22;54122;53.538;49.366;2022-10-16T08:12:54;18.50;35.30
67196;DHT22;54122;53.538;49.366;2022-10-16T08:15:25;18.60;34.90
67196;DHT22;54122;53.538;49.366;2022-10-16T08:17:57;18.60;35.20
67196;DHT22;54122;53.538;49.366;2022-10-16T08:20:30;18.80;34.80
67196;DHT22;54122;53.538;49.366;2022-10-16T08:23:01;18.90;34.70
67196;DHT22;54122;53.538;49.366;2022-10-16T08:25:36;19.20;33.90
67196;DHT22;54122;53.538;49.366;2022-10-16T08:28:08;19.30;33.30
67196;DHT22;54122;53.538;49.366;2022-10-16T08:30:40;19.00;33.70
67196;DHT22;54122;53.538;49.366;2022-10-16T08:33:15;18.70;33.90
67196;DHT22;54122;53.538;49.366;2022-10-16T08:35:52;18.10;34.70
67196;DHT22;54122;53.538;49.366;2022-10-16T08:38:24;17.90;35.60
67196;DHT22;54122;53.538;49.366;2022-10-16T08:41:19;17.40;36.00
67196;DHT22;54122;53.538;49.366;2022-10-16T08:44:11;17.00;37.40
67196;DHT22;54122;53.538;49.366;2022-10-16T08:49:25;18.10;35.80
67196;DHT22;54122;53.538;49.366;2022-10-16T08:51:56;18.50;34.70
67196;DHT22;54122;53.538;49.366;2022-10-16T08:57:33;18.20;33.70
67196;DHT22;54122;53.538;49.366;2022-10-16T09:00:05;18.00;34.50
67196;DHT22;54122;53.538;49.366;2022-10-16T09:05:27;17.00;35.70
67196;DHT22;54122;53.538;49.366;2022-10-16T09:08:07;17.00;35.80
67196;DHT22;54122;53.538;49.366;2022-10-16T09:13:23;16.60;36.70
67196;DHT22;54122;53.538;49.366;2022-10-16T09:16:42;16.60;36.20
67196;DHT22;54122;53.538;49.366;2022-10-16T09:21:25;15.90;37.00
67196;DHT22;54122;53.538;49.366;2022-10-16T09:24:16;15.50;37.80
67196;DHT22;54122;53.538;49.366;2022-10-16T09:26:48;15.20;38.50
67196;DHT22;54122;53.538;49.366;2022-10-16T09:29:20;15.20;39.30
67196;DHT22;54122;53.538;49.366;2022-10-16T09:31:52;15.50;38.80
67196;DHT22;54122;53.538;49.366;2022-10-16T09:34:33;15.70;38.30
67196;DHT22;54122;53.538;49.366;2022-10-16T09:37:09;15.40;38.30
67196;DHT22;54122;53.538;49.366;2022-10-16T09:39:48;15.10;39.70
67196;DHT22;54122;53.538;49.366;2022-10-16T09:42:20;14.90;40.30
67196;DHT22;54122;53.538;49.366;2022-10-16T09:44:53;15.00;40.70
67196;DHT22;54122;53.538;49.366;2022-10-16T09:47:29;15.10;40.50
67196;DHT22;54122;53.538;49.366;2022-10-16T09:50:02;15.30;40.40
67196;DHT22;54122;53.538;49.366;2022-10-16T09:52:37;15.40;39.60
67196;DHT22;54122;53.538;49.366;2022-10-16T09:55:16;15.50;39.90
67196;DHT22;54122;53.538;49.366;2022-10-16T09:57:48;15.60;39.80
67196;DHT22;54122;53.538;49.366;2022-10-16T10:00:20;15.70;40.00
67196;DHT22;54122;53.538;49.366;2022-10-16T10:02:52;15.60;40.10
67196;DHT22;54122;53.538;49.366;2022-10-16T10:05:25;15.60;39.10
67196;DHT22;54122;53.538;49.366;2022-10-16T10:07:58;15.30;39.50
67196;DHT22;54122;53.538;49.366;2022-10-16T10:10:30;15.10;40.30
67196;DHT22;54122;53.538;49.366;2022-10-16T10:13:03;14.90;40.00
67196;DHT22;54122;53.538;49.366;2022-10-16T10:15:34;14.80;40.70
67196;DHT22;54122;53.538;49.366;2022-10-16T10:18:17;14.80;40.90
67196;DHT22;54122;53.538;49.366;2022-10-16T10:20:57;14.70;41.00
67196;DHT22;54122;53.538;49.366;2022-10-16T10:23:29;14.60;41.20
67196;DHT22;54122;53.538;49.366;2022-10-16T10:26:03;14.40;41.40
67196;DHT22;54122;53.538;49.366;2022-10-16T10:28:46;14.30;41.80
67196;DHT22;54122;53.538;49.366;2022-10-16T10:36:38;14.50;42.50
67196;DHT22;54122;53.538;49.366;2022-10-16T10:39:13;14.50;41.50
67196;DHT22;54122;53.538;49.366;2022-10-16T10:42:05;14.40;41.20
67196;DHT22;54122;53.538;49.366;2022-10-16T10:50:48;13.90;42.50
67196;DHT22;54122;53.538;49.366;2022-10-16T10:53:07;13.80;42.60
67196;DHT22;54122;53.538;49.366;2022-10-16T11:03:50;13.60;43.10
67196;DHT22;54122;53.538;49.366;2022-10-16T11:06:26;13.40;43.40
67196;DHT22;54122;53.538;49.366;2022-10-16T11:11:51;12.90;44.60
67196;DHT22;54122;53.538;49.366;2022-10-16T11:17:16;12.50;45.80
67196;DHT22;54122;53.538;49.366;2022-10-16T11:19:51;12.20;46.40
67196;DHT22;54122;53.538;49.366;2022-10-16T11:22:27;12.10;47.00
67196;DHT22;54122;53.538;49.366;2022-10-16T11:27:41;12.20;47.30
67196;DHT22;54122;53.538;49.366;2022-10-16T11:30:16;12.30;47.70
67196;DHT22;54122;53.538;49.366;2022-10-16T11:35:43;12.40;47.30
67196;DHT22;54122;53.538;49.366;2022-10-16T11:38:29;12.40;47.50
67196;DHT22;54122;53.538;49.366;2022-10-16T11:44:03;12.30;47.50
67196;DHT22;54122;53.538;49.366;2022-10-16T11:46:38;12.20;47.40
67196;DHT22;54122;53.538;49.366;2022-10-16T11:51:59;11.90;48.20
67196;DHT22;54122;53.538;49.366;2022-10-16T11:57:13;11.60;48.40
67196;DHT22;54122;53.538;49.366;2022-10-16T11:59:53;11.50;48.90
67196;DHT22;54122;53.538;49.366;2022-10-16T12:05:03;11.30;49.60
67196;DHT22;54122;53.538;49.366;2022-10-16T12:07:38;11.20;50.00
67196;DHT22;54122;53.538;49.366;2022-10-16T12:10:19;11.10;49.80
67196;DHT22;54122;53.538;49.366;2022-10-16T12:12:51;11.10;49.50
67196;DHT22;54122;53.538;49.366;2022-10-16T12:17:54;11.00;49.80
67196;DHT22;54122;53.538;49.366;2022-10-16T12:22:59;10.80;50.50
67196;DHT22;54122;53.538;49.366;2022-10-16T12:28:15;10.70;51.30
67196;DHT22;54122;53.538;49.366;2022-10-16T12:30:55;10.60;51.60
67196;DHT22;54122;53.538;49.366;2022-10-16T12:33:31;10.60;51.80
67196;DHT22;54122;53.538;49.366;2022-10-16T12:36:04;10.50;52.30
67196;DHT22;54122;53.538;49.366;2022-10-16T12:38:52;10.50;52.60
67196;DHT22;54122;53.538;49.366;2022-10-16T12:41:24;10.50;53.00
67196;DHT22;54122;53.538;49.366;2022-10-16T12:43:57;10.30;53.20
67196;DHT22;54122;53.538;49.366;2022-10-16T12:51:58;10.30;54.20
67196;DHT22;54122;53.538;49.366;2022-10-16T12:54:30;10.30;54.40
67196;DHT22;54122;53.538;49.366;2022-10-16T13:02:48;10.00;55.10
67196;DHT22;54122;53.538;49.366;2022-10-16T13:10:46;9.70;56.60
67196;DHT22;54122;53.538;49.366;2022-10-16T13:13:30;9.60;56.60
67196;DHT22;54122;53.538;49.366;2022-10-16T13:18:48;9.50;56.90
67196;DHT22;54122;53.538;49.366;2022-10-16T13:21:30;9.30;57.10
67196;DHT22;54122;53.538;49.366;2022-10-16T13:29:09;8.90;59.30
67196;DHT22;54122;53.538;49.366;2022-10-16T13:31:40;8.80;58.80
67196;DHT22;54122;53.538;49.366;2022-10-16T13:34:14;8.60;59.10
67196;DHT22;54122;53.538;49.366;2022-10-16T13:36:48;8.40;60.00
67196;DHT22;54122;53.538;49.366;2022-10-16T13:39:28;8.20;60.70
67196;DHT22;54122;53.538;49.366;2022-10-16T13:44:33;7.90;61.70
67196;DHT22;54122;53.538;49.366;2022-10-16T13:47:10;7.80;62.20
67196;DHT22;54122;53.538;49.366;2022-10-16T13:49:46;7.70;62.80
67196;DHT22;54122;53.538;49.366;2022-10-16T13:52:21;7.50;63.10
67196;DHT22;54122;53.538;49.366;2022-10-16T13:54:52;7.40;63.40
67196;DHT22;54122;53.538;49.366;2022-10-16T13:57:25;7.30;63.90
67196;DHT22;54122;53.538;49.366;2022-10-16T13:59:58;7.20;64.30
67196;DHT22;54122;53.538;49.366;2022-10-16T14:05:01;6.90;65.20
67196;DHT22;54122;53.538;49.366;2022-10-16T14:07:33;6.80;65.60
67196;DHT22;54122;53.538;49.366;2022-10-16T14:10:05;6.70;65.90
67196;DHT22;54122;53.538;49.366;2022-10-16T14:12:38;6.60;65.90
67196;DHT22;54122;53.538;49.366;2022-10-16T14:15:16;6.50;66.40
67196;DHT22;54122;53.538;49.366;2022-10-16T14:17:50;6.40;66.80
67196;DHT22;54122;53.538;49.366;2022-10-16T14:20:24;6.30;67.10
67196;DHT22;54122;53.538;49.366;2022-10-16T14:23:04;6.20;67.50
67196;DHT22;54122;53.538;49.366;2022-10-16T14:25:35;6.10;67.80
67196;DHT22;54122;53.538;49.366;2022-10-16T14:28:22;6.00;68.20
67196;DHT22;54122;53.538;49.366;2022-10-16T14:30:55;6.00;68.40
67196;DHT22;54122;53.538;49.366;2022-10-16T14:38:42;5.70;69.40
67196;DHT22;54122;53.538;49.366;2022-10-16T14:41:14;5.60;69.60
67196;DHT22;54122;53.538;49.366;2022-10-16T14:43:49;5.60;70.00
67196;DHT22;54122;53.538;49.366;2022-10-16T14:46:21;5.50;70.20
67196;DHT22;54122;53.538;49.366;2022-10-16T14:49:19;5.40;70.70
67196;DHT22;54122;53.538;49.366;2022-10-16T14:51:48;5.30;70.90
67196;DHT22;54122;53.538;49.366;2022-10-16T14:54:20;5.30;71.50
67196;DHT22;54122;53.538;49.366;2022-10-16T14:56:55;5.20;71.70
67196;DHT22;54122;53.538;49.366;2022-10-16T14:59:40;5.10;72.00
67196;DHT22;54122;53.538;49.366;2022-10-16T15:02:23;5.00;72.20
67196;DHT22;54122;53.538;49.366;2022-10-16T15:04:55;5.00;72.60
67196;DHT22;54122;53.538;49.366;2022-10-16T15:07:27;4.90;72.80
67196;DHT22;54122;53.538;49.366;2022-10-16T15:09:58;4.90;73.30
67196;DHT22;54122;53.538;49.366;2022-10-16T15:12:30;4.80;73.40
67196;DHT22;54122;53.538;49.366;2022-10-16T15:15:04;4.80;73.70
67196;DHT22;54122;53.538;49.366;2022-10-16T15:17:41;4.70;73.90
67196;DHT22;54122;53.538;49.366;2022-10-16T15:20:12;4.70;73.80
67196;DHT22;54122;53.538;49.366;2022-10-16T15:22:44;4.60;74.00
67196;DHT22;54122;53.538;49.366;2022-10-16T15:28:03;4.50;74.90
67196;DHT22;54122;53.538;49.366;2022-10-16T15:30:35;4.50;75.20
67196;DHT22;54122;53.538;49.366;2022-10-16T15:33:11;4.40;75.30
67196;DHT22;54122;53.538;49.366;2022-10-16T15:35:47;4.40;75.80
67196;DHT22;54122;53.538;49.366;2022-10-16T15:38:19;4.40;75.70
67196;DHT22;54122;53.538;49.366;2022-10-16T15:40:51;4.30;76.00
67196;DHT22;54122;53.538;49.366;2022-10-16T15:43:22;4.30;76.30
67196;DHT22;54122;53.538;49.366;2022-10-16T15:46:04;4.30;76.30
67196;DHT22;54122;53.538;49.366;2022-10-16T15:48:36;4.20;76.50
67196;DHT22;54122;53.538;49.366;2022-10-16T15:51:08;4.20;76.80
67196;DHT22;54122;53.538;49.366;2022-10-16T15:53:40;4.20;76.90
67196;DHT22;54122;53.538;49.366;2022-10-16T15:56:14;4.10;77.00
67196;DHT22;54122;53.538;49.366;2022-10-16T15:58:46;4.10;77.30
67196;DHT22;54122;53.538;49.366;2022-10-16T16:01:17;4.10;77.40
67196;DHT22;54122;53.538;49.366;2022-10-16T16:03:52;4.00;77.50
67196;DHT22;54122;53.538;49.366;2022-10-16T16:06:23;4.00;77.80
67196;DHT22;54122;53.538;49.366;2022-10-16T16:08:54;3.90;77.90
67196;DHT22;54122;53.538;49.366;2022-10-16T16:11:26;3.90;78.10
67196;DHT22;54122;53.538;49.366;2022-10-16T16:13:57;3.80;78.20
67196;DHT22;54122;53.538;49.366;2022-10-16T16:16:28;3.80;78.50
67196;DHT22;54122;53.538;49.366;2022-10-16T16:19:00;3.70;78.80
67196;DHT22;54122;53.538;49.366;2022-10-16T16:21:32;3.70;79.20
67196;DHT22;54122;53.538;49.366;2022-10-16T16:24:03;3.60;79.30
67196;DHT22;54122;53.538;49.366;2022-10-16T16:26:39;3.60;79.60
67196;DHT22;54122;53.538;49.366;2022-10-16T16:29:14;3.50;79.80
67196;DHT22;54122;53.538;49.366;2022-10-16T16:31:46;3.50;80.00
67196;DHT22;54122;53.538;49.366;2022-10-16T16:34:18;3.40;80.20
67196;DHT22;54122;53.538;49.366;2022-10-16T16:36:50;3.40;80.20
67196;DHT22;54122;53.538;49.366;2022-10-16T16:39:22;3.30;80.30
67196;DHT22;54122;53.538;49.366;2022-10-16T16:41:55;3.30;80.70
67196;DHT22;54122;53.538;49.366;2022-10-16T16:44:26;3.20;80.70
67196;DHT22;54122;53.538;49.366;2022-10-16T16:46:59;3.20;81.00
67196;DHT22;54122;53.538;49.366;2022-10-16T16:49:31;3.10;81.30
67196;DHT22;54122;53.538;49.366;2022-10-16T16:52:02;3.10;81.40
67196;DHT22;54122;53.538;49.366;2022-10-16T16:54:35;3.10;81.50
67196;DHT22;54122;53.538;49.366;2022-10-16T16:57:07;3.10;82.00
67196;DHT22;54122;53.538;49.366;2022-10-16T16:59:42;3.10;82.40
67196;DHT22;54122;53.538;49.366;2022-10-16T17:02:13;3.00;82.30
67196;DHT22;54122;53.538;49.366;2022-10-16T17:04:45;3.00;82.40
67196;DHT22;54122;53.538;49.366;2022-10-16T17:07:16;3.00;82.70
67196;DHT22;54122;53.538;49.366;2022-10-16T17:09:49;3.00;82.80
67196;DHT22;54122;53.538;49.366;2022-10-16T17:12:21;2.90;82.80
67196;DHT22;54122;53.538;49.366;2022-10-16T17:14:52;2.90;82.90
67196;DHT22;54122;53.538;49.366;2022-10-16T17:17:25;2.90;83.20
67196;DHT22;54122;53.538;49.366;2022-10-16T17:19:59;2.80;83.00
67196;DHT22;54122;53.538;49.366;2022-10-16T17:22:31;2.70;83.20
67196;DHT22;54122;53.538;49.366;2022-10-16T17:25:02;2.70;83.60
67196;DHT22;54122;53.538;49.366;2022-10-16T17:27:35;2.70;83.80
67196;DHT22;54122;53.538;49.366;2022-10-16T17:30:10;2.70;83.90
67196;DHT22;54122;53.538;49.366;2022-10-16T17:32:44;2.70;84.10
67196;DHT22;54122;53.538;49.366;2022-10-16T17:35:17;2.70;83.90
67196;DHT22;54122;53.538;49.366;2022-10-16T17:37:50;2.60;84.90
67196;DHT22;54122;53.538;49.366;2022-10-16T17:40:24;2.60;84.20
67196;DHT22;54122;53.538;49.366;2022-10-16T17:42:56;2.60;84.40
67196;DHT22;54122;53.538;49.366;2022-10-16T17:45:27;2.50;84.50
67196;DHT22;54122;53.538;49.366;2022-10-16T17:48:03;2.50;84.70
67196;DHT22;54122;53.538;49.366;2022-10-16T17:50:38;2.50;84.70
67196;DHT22;54122;53.538;49.366;2022-10-16T17:53:10;2.50;84.70
67196;DHT22;54122;53.538;49.366;2022-10-16T17:55:42;2.40;84.80
67196;DHT22;54122;53.538;49.366;2022-10-16T17:58:15;2.40;84.80
67196;DHT22;54122;53.538;49.366;2022-10-16T18:00:46;2.30;84.80